createdAt,value
2018-12-20T00:01:41.856Z,35.03
2018-12-20T00:04:10.970Z,37.03
2018-12-20T00:06:39.952Z,38.30
2018-12-20T00:09:09.042Z,37.57
2018-12-20T00:11:38.090Z,38.50
2018-12-20T00:14:07.210Z,37.03
2018-12-20T00:16:36.269Z,39.43
2018-12-20T00:19:05.445Z,37.03
2018-12-20T00:21:34.555Z,39.37
2018-12-20T00:24:03.568Z,34.53
2018-12-20T00:26:32.691Z,37.80
2018-12-20T00:29:01.838Z,36.20
2018-12-20T00:31:30.913Z,36.27
2018-12-20T00:33:59.995Z,38.57
2018-12-20T00:36:28.962Z,39.67
2018-12-20T00:38:58.008Z,38.00
2018-12-20T00:41:27.072Z,36.20
2018-12-20T00:43:56.161Z,38.33
2018-12-20T00:46:26.307Z,36.33
2018-12-20T00:48:55.381Z,36.13
2018-12-20T00:51:24.388Z,38.60
2018-12-20T00:53:53.430Z,35.17
2018-12-20T00:56:22.504Z,35.80
2018-12-20T00:58:51.567Z,35.87
2018-12-20T01:01:20.627Z,33.83
2018-12-20T01:03:49.830Z,34.53
2018-12-20T01:06:18.859Z,36.53
2018-12-20T01:08:47.992Z,38.37
2018-12-20T01:11:16.944Z,36.03
2018-12-20T01:13:46.032Z,37.77
2018-12-20T01:16:15.197Z,37.60
2018-12-20T01:18:44.220Z,36.37
2018-12-20T01:21:13.333Z,34.33
2018-12-20T01:23:42.319Z,37.60
2018-12-20T01:26:11.367Z,36.23
2018-12-20T01:28:40.454Z,42.13
2018-12-20T01:31:09.589Z,35.83
2018-12-20T01:33:38.629Z,36.40
2018-12-20T01:36:07.730Z,38.60
2018-12-20T01:38:36.764Z,35.67
2018-12-20T01:41:05.824Z,35.60
2018-12-20T01:43:35.175Z,36.70
2018-12-20T01:46:04.113Z,36.47
2018-12-20T01:48:33.208Z,38.90
2018-12-20T01:51:02.255Z,38.83
2018-12-20T01:53:31.416Z,39.50
2018-12-20T01:56:00.481Z,36.57
2018-12-20T01:58:29.691Z,37.10
2018-12-20T02:00:58.609Z,39.57
2018-12-20T02:03:27.732Z,39.57
2018-12-20T02:05:57.088Z,38.30
2018-12-20T02:08:26.143Z,34.60
2018-12-20T02:10:55.326Z,29.97
2018-12-20T02:13:24.426Z,36.77
2018-12-20T02:15:53.545Z,38.90
2018-12-20T02:18:22.523Z,37.70
2018-12-20T02:20:51.715Z,38.77
2018-12-20T02:23:20.640Z,37.70
2018-12-20T02:25:49.985Z,39.77
2018-12-20T02:28:19.058Z,38.73
2018-12-20T02:30:48.003Z,38.77
2018-12-20T02:33:16.987Z,39.33
2018-12-20T02:35:45.996Z,39.20
2018-12-20T02:38:15.265Z,38.17
2018-12-20T02:40:44.209Z,38.47
2018-12-20T02:43:13.201Z,38.40
2018-12-20T02:45:42.291Z,36.03
2018-12-20T02:48:11.377Z,39.73
2018-12-20T02:50:40.849Z,39.27
2018-12-20T02:53:09.744Z,38.80
2018-12-20T02:55:38.579Z,36.50
2018-12-20T02:58:07.659Z,38.70
2018-12-20T03:00:36.713Z,36.43
2018-12-20T03:03:05.785Z,37.70
2018-12-20T03:05:35.868Z,38.20
2018-12-20T03:08:04.770Z,39.27
2018-12-20T03:10:33.943Z,38.33
2018-12-20T03:13:03.093Z,39.57
2018-12-20T03:15:32.167Z,38.77
2018-12-20T03:18:01.051Z,38.00
2018-12-20T03:20:30.408Z,38.30
2018-12-20T03:22:59.206Z,36.93
2018-12-20T03:25:28.352Z,39.77
2018-12-20T03:27:57.458Z,39.47
2018-12-20T03:30:26.586Z,38.17
2018-12-20T03:32:55.553Z,38.63
2018-12-20T03:35:24.665Z,39.40
2018-12-20T03:37:53.775Z,38.17
2018-12-20T03:40:22.682Z,38.63
2018-12-20T03:42:51.889Z,37.90
2018-12-20T03:45:28.379Z,36.07
2018-12-20T03:47:49.896Z,33.70
2018-12-20T03:50:19.079Z,36.03
2018-12-20T03:52:48.130Z,39.43
2018-12-20T03:55:17.316Z,38.50
2018-12-20T03:57:47.007Z,38.40
2018-12-20T04:00:15.953Z,40.17
2018-12-20T04:02:45.074Z,37.97
2018-12-20T04:05:13.990Z,36.83
2018-12-20T04:07:43.238Z,36.90
2018-12-20T04:10:12.053Z,37.10
2018-12-20T04:12:41.138Z,36.37
2018-12-20T04:15:10.209Z,36.57
2018-12-20T04:17:39.296Z,36.27
2018-12-20T04:20:08.601Z,38.43
2018-12-20T04:22:37.584Z,35.60
2018-12-20T04:25:06.621Z,36.07
2018-12-20T04:27:35.789Z,37.03
2018-12-20T04:30:04.783Z,37.00
2018-12-20T04:32:33.987Z,35.37
2018-12-20T04:35:02.938Z,35.80
2018-12-20T04:37:32.171Z,36.60
2018-12-20T04:40:01.064Z,35.33
2018-12-20T04:42:30.278Z,36.73
2018-12-20T04:44:59.224Z,37.77
2018-12-20T04:47:31.061Z,35.77
2018-12-20T04:50:00.116Z,36.63
2018-12-20T04:52:29.218Z,36.97
2018-12-20T04:54:58.420Z,37.20
2018-12-20T04:57:27.561Z,38.03
2018-12-20T04:59:56.464Z,34.53
2018-12-20T05:02:25.777Z,38.67
2018-12-20T05:04:54.604Z,35.93
2018-12-20T05:07:23.836Z,36.40
2018-12-20T05:09:52.713Z,33.87
2018-12-20T05:12:22.031Z,37.00
2018-12-20T05:14:50.879Z,36.37
2018-12-20T05:17:20.098Z,37.97
2018-12-20T05:19:49.006Z,37.13
2018-12-20T05:22:18.097Z,37.30
2018-12-20T05:24:47.152Z,34.30
2018-12-20T05:27:16.347Z,36.87
2018-12-20T05:29:45.326Z,36.27
2018-12-20T05:32:14.653Z,32.43
2018-12-20T05:34:43.696Z,33.97
2018-12-20T05:37:12.558Z,38.83
2018-12-20T05:39:41.634Z,35.67
2018-12-20T05:42:10.802Z,35.33
2018-12-20T05:44:39.765Z,34.43
2018-12-20T05:47:08.937Z,36.90
2018-12-20T05:49:38.017Z,38.63
2018-12-20T05:52:06.944Z,35.43
2018-12-20T05:54:36.010Z,29.77
2018-12-20T05:57:10.748Z,34.33
2018-12-20T05:59:39.977Z,38.60
2018-12-20T06:02:08.864Z,38.90
2018-12-20T06:04:38.117Z,41.70
2018-12-20T06:07:07.058Z,38.63
2018-12-20T06:09:36.078Z,40.40
2018-12-20T06:12:05.229Z,39.90
2018-12-20T06:14:34.412Z,37.87
2018-12-20T06:17:03.428Z,39.40
2018-12-20T06:19:32.581Z,38.37
2018-12-20T06:22:01.643Z,36.60
2018-12-20T06:24:30.531Z,34.77
2018-12-20T06:26:59.642Z,37.53
2018-12-20T06:29:28.716Z,35.93
2018-12-20T06:31:57.774Z,35.93
2018-12-20T06:34:26.980Z,38.50
2018-12-20T06:36:56.036Z,34.53
2018-12-20T06:39:25.096Z,36.40
2018-12-20T06:41:54.334Z,36.43
2018-12-20T06:44:23.395Z,36.30
2018-12-20T06:46:52.464Z,38.47
2018-12-20T06:49:21.551Z,38.03
2018-12-20T06:51:50.613Z,34.70
2018-12-20T06:54:19.669Z,40.37
2018-12-20T06:56:48.801Z,33.93
2018-12-20T06:59:17.870Z,37.30
2018-12-20T07:01:46.911Z,37.97
2018-12-20T07:04:15.994Z,36.87
2018-12-20T07:06:45.058Z,38.03
2018-12-20T07:09:14.112Z,34.10
2018-12-20T07:11:43.190Z,34.33
2018-12-20T07:14:12.250Z,36.50
2018-12-20T07:16:41.334Z,34.10
2018-12-20T07:19:10.459Z,35.43
2018-12-20T07:21:39.590Z,33.77
2018-12-20T07:24:08.623Z,35.30
2018-12-20T07:26:37.724Z,36.10
2018-12-20T07:29:06.792Z,35.37
2018-12-20T07:31:35.848Z,32.83
2018-12-20T07:34:04.941Z,26.03
2018-12-20T07:36:34.006Z,34.73
2018-12-20T07:39:03.090Z,35.17
2018-12-20T07:41:32.506Z,33.90
2018-12-20T07:44:01.572Z,32.80
2018-12-20T07:46:37.537Z,37.50
2018-12-20T07:48:59.967Z,33.33
2018-12-20T07:51:29.038Z,33.93
2018-12-20T07:53:58.107Z,36.80
2018-12-20T07:56:27.210Z,37.50
2018-12-20T07:58:56.336Z,36.33
2018-12-20T08:01:25.387Z,39.80
2018-12-20T08:03:54.492Z,29.97
2018-12-20T08:06:44.536Z,36.40
2018-12-20T08:09:13.623Z,36.23
2018-12-20T08:11:42.688Z,37.23
2018-12-20T08:14:11.761Z,36.00
2018-12-20T08:16:46.023Z,40.50
2018-12-20T08:19:09.939Z,37.83
2018-12-20T08:21:39.067Z,35.60
2018-12-20T08:24:08.181Z,35.13
2018-12-20T08:26:37.243Z,44.83
2018-12-20T08:29:06.305Z,38.63
2018-12-20T08:31:35.391Z,35.23
2018-12-20T08:34:04.546Z,36.37
2018-12-20T08:36:33.616Z,34.90
2018-12-20T08:39:02.714Z,36.00
2018-12-20T08:41:31.784Z,37.60
2018-12-20T08:44:00.846Z,33.67
2018-12-20T08:46:31.674Z,31.20
2018-12-20T08:48:59.009Z,35.27
2018-12-20T08:51:28.067Z,35.97
2018-12-20T08:53:57.155Z,33.43
2018-12-20T08:56:26.216Z,35.13
2018-12-20T08:58:55.286Z,35.20
2018-12-20T09:01:24.380Z,35.57
2018-12-20T09:03:53.449Z,39.90
2018-12-20T09:06:22.516Z,37.20
2018-12-20T09:08:51.605Z,36.83
2018-12-20T09:11:20.668Z,33.60
2018-12-20T09:13:49.750Z,34.30
2018-12-20T09:16:18.854Z,35.50
2018-12-20T09:18:47.920Z,39.23
2018-12-20T09:21:16.971Z,35.27
2018-12-20T09:23:46.323Z,45.40
2018-12-20T09:26:15.415Z,35.20
2018-12-20T09:28:44.470Z,36.67
2018-12-20T09:31:13.644Z,37.20
2018-12-20T09:33:42.712Z,35.87
2018-12-20T09:36:11.806Z,53.07
2018-12-20T09:38:40.922Z,40.13
2018-12-20T09:41:09.982Z,50.60
2018-12-20T09:43:39.046Z,42.90
2018-12-20T09:46:08.168Z,37.10
2018-12-20T09:48:37.238Z,35.67
2018-12-20T09:51:06.295Z,36.40
2018-12-20T09:53:35.383Z,43.03
2018-12-20T09:56:04.442Z,39.80
2018-12-20T09:58:33.498Z,50.30
2018-12-20T10:01:02.589Z,42.93
2018-12-20T10:03:31.655Z,38.53
2018-12-20T10:06:00.729Z,40.97
2018-12-20T10:08:29.841Z,42.43
2018-12-20T10:10:58.893Z,37.93
2018-12-20T10:13:27.948Z,37.00
2018-12-20T10:15:57.030Z,37.73
2018-12-20T10:18:26.094Z,39.17
2018-12-20T10:20:55.162Z,37.03
2018-12-20T10:23:24.239Z,37.30
2018-12-20T10:25:53.295Z,38.00
2018-12-20T10:28:22.355Z,36.80
2018-12-20T10:30:51.471Z,43.13
2018-12-20T10:33:20.533Z,42.27
2018-12-20T10:35:49.599Z,37.93
2018-12-20T10:38:18.703Z,43.13
2018-12-20T10:40:47.818Z,37.20
2018-12-20T10:43:16.887Z,40.43
2018-12-20T10:45:45.978Z,46.77
2018-12-20T10:48:15.042Z,46.83
2018-12-20T10:50:44.116Z,41.43
2018-12-20T10:53:13.494Z,42.63
2018-12-20T10:55:42.555Z,51.00
2018-12-20T10:58:11.621Z,45.03
2018-12-20T11:00:42.549Z,41.10
2018-12-20T11:03:17.139Z,44.70
2018-12-20T11:05:51.772Z,48.90
2018-12-20T11:08:22.694Z,42.63
2018-12-20T11:10:51.748Z,42.03
2018-12-20T11:13:25.937Z,49.67
2018-12-20T11:15:54.924Z,57.63
2018-12-20T11:18:23.980Z,49.40
2018-12-20T11:20:53.076Z,54.57
2018-12-20T11:23:22.142Z,67.83
2018-12-20T11:25:51.211Z,57.87
2018-12-20T11:28:20.519Z,53.27
2018-12-20T11:30:49.584Z,45.73
2018-12-20T11:33:18.648Z,58.33
2018-12-20T11:35:47.987Z,68.87
2018-12-20T11:38:17.080Z,58.60
2018-12-20T11:40:46.169Z,47.03
2018-12-20T11:43:15.584Z,48.43
2018-12-20T11:45:44.654Z,49.30
2018-12-20T11:48:13.738Z,47.87
2018-12-20T11:50:42.837Z,43.27
2018-12-20T11:53:11.899Z,51.63
2018-12-20T11:55:40.974Z,56.60
2018-12-20T11:58:10.126Z,70.07
2018-12-20T12:00:39.291Z,58.47
2018-12-20T12:03:08.281Z,56.87
2018-12-20T12:05:37.378Z,57.33
2018-12-20T12:08:06.460Z,72.83
2018-12-20T12:10:35.531Z,74.77
2018-12-20T12:13:04.628Z,57.63
2018-12-20T12:15:33.706Z,62.87
2018-12-20T12:18:02.790Z,68.23
2018-12-20T12:20:31.880Z,59.03
2018-12-20T12:23:01.027Z,68.93
2018-12-20T12:25:30.008Z,56.20
2018-12-20T12:27:59.110Z,50.73
2018-12-20T12:30:28.195Z,54.13
2018-12-20T12:32:57.253Z,51.07
2018-12-20T12:35:26.674Z,59.33
2018-12-20T12:37:55.750Z,58.50
2018-12-20T12:40:24.826Z,60.13
2018-12-20T12:42:53.912Z,69.27
2018-12-20T12:45:22.980Z,66.30
2018-12-20T12:50:35.490Z,54.37
2018-12-20T12:53:04.733Z,63.63
2018-12-20T12:55:33.795Z,63.43
2018-12-20T12:58:05.036Z,75.63
2018-12-20T13:00:31.964Z,63.33
2018-12-20T13:03:01.029Z,48.60
2018-12-20T13:05:30.099Z,69.37
2018-12-20T13:07:59.198Z,54.37
2018-12-20T13:10:28.260Z,61.27
2018-12-20T13:12:57.357Z,62.33
2018-12-20T13:15:26.493Z,72.33
2018-12-20T13:17:55.566Z,60.37
2018-12-20T13:20:24.631Z,73.03
2018-12-20T13:22:53.716Z,61.90
2018-12-20T13:25:22.783Z,77.03
2018-12-20T13:27:51.846Z,64.43
2018-12-20T13:30:20.941Z,54.40
2018-12-20T13:32:50.001Z,69.90
2018-12-20T13:35:19.057Z,53.87
2018-12-20T13:37:48.206Z,55.07
2018-12-20T13:40:17.272Z,63.40
2018-12-20T13:42:46.342Z,62.20
2018-12-20T13:45:15.438Z,53.47
2018-12-20T13:47:44.500Z,58.20
2018-12-20T13:50:13.566Z,54.90
2018-12-20T13:52:42.666Z,57.03
2018-12-20T13:55:11.752Z,55.10
2018-12-20T13:57:40.819Z,60.77
2018-12-20T14:00:09.917Z,80.97
2018-12-20T14:02:38.985Z,62.57
2018-12-20T14:05:08.040Z,57.20
2018-12-20T14:07:37.129Z,59.33
2018-12-20T14:10:06.190Z,55.80
2018-12-20T14:12:35.265Z,50.43
2018-12-20T14:15:04.351Z,52.20
2018-12-20T14:17:33.423Z,52.43
2018-12-20T14:20:02.479Z,64.43
2018-12-20T14:22:31.698Z,53.43
2018-12-20T14:25:00.786Z,54.40
2018-12-20T14:27:29.849Z,75.50
2018-12-20T14:29:58.946Z,96.20
2018-12-20T14:32:28.007Z,66.53
2018-12-20T14:34:57.079Z,65.47
2018-12-20T14:37:26.175Z,58.47
2018-12-20T14:39:55.230Z,71.17
2018-12-20T14:42:24.287Z,70.43
2018-12-20T14:44:53.750Z,68.57
2018-12-20T14:47:34.163Z,64.30
2018-12-20T14:50:03.278Z,89.63
2018-12-20T14:52:32.329Z,91.50
2018-12-20T14:55:01.400Z,77.10
2018-12-20T14:57:30.481Z,65.87
2018-12-20T14:59:59.561Z,84.97
2018-12-20T15:02:28.626Z,98.37
2018-12-20T15:04:57.737Z,79.03
2018-12-20T15:07:26.805Z,69.97
2018-12-20T15:09:55.871Z,73.87
2018-12-20T15:12:24.994Z,76.33
2018-12-20T15:14:54.059Z,74.20
2018-12-20T15:17:23.127Z,59.80
2018-12-20T15:19:52.219Z,67.17
2018-12-20T15:22:21.290Z,83.17
2018-12-20T15:24:50.364Z,63.50
2018-12-20T15:27:19.499Z,64.60
2018-12-20T15:29:48.566Z,59.93
2018-12-20T15:32:17.634Z,68.87
2018-12-20T15:34:46.810Z,66.57
2018-12-20T15:37:15.883Z,60.20
2018-12-20T15:39:44.950Z,70.70
2018-12-20T15:42:14.040Z,55.77
2018-12-20T15:44:43.114Z,59.73
2018-12-20T15:47:12.177Z,70.30
2018-12-20T15:49:42.135Z,66.17
2018-12-20T15:52:10.385Z,66.07
2018-12-20T15:54:39.450Z,60.40
2018-12-20T15:57:08.579Z,63.00
2018-12-20T15:59:37.665Z,74.60
2018-12-20T16:02:06.730Z,75.17
2018-12-20T16:04:35.822Z,89.97
2018-12-20T16:07:04.886Z,81.67
2018-12-20T16:09:33.958Z,78.53
2018-12-20T16:12:03.065Z,97.43
2018-12-20T16:14:32.141Z,85.77
2018-12-20T16:17:01.207Z,89.27
2018-12-20T16:19:30.307Z,88.53
2018-12-20T16:21:59.351Z,99.50
2018-12-20T16:24:28.423Z,125.40
2018-12-20T16:26:57.522Z,85.13
2018-12-20T16:29:26.608Z,100.33
2018-12-20T16:31:55.680Z,85.03
2018-12-20T16:34:25.220Z,87.63
2018-12-20T16:36:54.295Z,86.20
2018-12-20T16:39:23.558Z,81.20
2018-12-20T16:41:52.535Z,87.37
2018-12-20T16:44:21.600Z,93.77
2018-12-20T16:46:55.538Z,92.00
2018-12-20T16:49:24.602Z,75.53
2018-12-20T16:51:53.672Z,86.47
2018-12-20T16:54:22.802Z,100.93
2018-12-20T16:56:51.870Z,123.33
2018-12-20T16:59:20.945Z,112.70
2018-12-20T17:01:50.092Z,139.10
2018-12-20T17:04:19.174Z,88.13
2018-12-20T17:06:51.281Z,101.87
2018-12-20T17:09:20.355Z,92.80
2018-12-20T17:11:49.428Z,85.80
2018-12-20T17:14:18.566Z,94.97
2018-12-20T17:16:47.630Z,74.03
2018-12-20T17:19:22.134Z,93.40
2018-12-20T17:21:45.793Z,83.30
2018-12-20T17:24:14.868Z,117.77
2018-12-20T17:26:43.949Z,107.53
2018-12-20T17:29:13.143Z,85.30
2018-12-20T17:31:42.212Z,88.97
2018-12-20T17:34:11.287Z,98.30
2018-12-20T17:36:40.407Z,173.57
2018-12-20T17:39:09.492Z,250.73
2018-12-20T17:41:38.562Z,350.53
2018-12-20T17:44:07.662Z,93.30
2018-12-20T17:46:36.734Z,89.03
2018-12-20T17:49:05.826Z,103.60
2018-12-20T17:51:34.924Z,96.10
2018-12-20T17:54:04.002Z,86.80
2018-12-20T17:56:33.797Z,129.13
2018-12-20T17:59:02.207Z,130.30
2018-12-20T18:01:31.286Z,124.30
2018-12-20T18:04:00.382Z,118.27
2018-12-20T18:06:30.503Z,151.70
2018-12-20T18:08:59.573Z,86.37
2018-12-20T18:11:28.647Z,102.83
2018-12-20T18:13:57.749Z,116.63
2018-12-20T18:16:26.823Z,79.53
2018-12-20T18:18:55.888Z,97.83
2018-12-20T18:21:25.855Z,91.67
2018-12-20T18:23:54.914Z,75.83
2018-12-20T18:26:23.989Z,71.10
2018-12-20T18:28:53.082Z,78.50
2018-12-20T18:31:22.149Z,92.30
2018-12-20T18:33:51.222Z,98.03
2018-12-20T18:36:20.317Z,86.77
2018-12-20T18:38:49.399Z,100.27
2018-12-20T18:41:18.473Z,91.83
2018-12-20T18:43:47.574Z,101.10
2018-12-20T18:46:17.645Z,96.83
2018-12-20T18:48:46.735Z,84.70
2018-12-20T18:51:15.831Z,96.50
2018-12-20T18:53:44.887Z,92.07
2018-12-20T18:56:13.959Z,88.83
2018-12-20T18:58:43.064Z,97.13
2018-12-20T19:01:12.129Z,83.37
2018-12-20T19:03:41.252Z,82.47
2018-12-20T19:06:13.981Z,77.40
2018-12-20T19:08:43.042Z,77.83
2018-12-20T19:11:12.116Z,72.43
2018-12-20T19:13:41.210Z,78.07
2018-12-20T19:16:10.284Z,89.40
2018-12-20T19:18:39.358Z,97.17
2018-12-20T19:21:08.453Z,83.87
2018-12-20T19:23:37.530Z,98.73
2018-12-20T19:26:06.616Z,105.10
2018-12-20T19:28:35.810Z,92.67
2018-12-20T19:31:04.884Z,85.17
2018-12-20T19:33:33.952Z,109.00
2018-12-20T19:36:03.052Z,134.67
2018-12-20T19:38:32.133Z,109.87
2018-12-20T19:41:01.224Z,111.23
2018-12-20T19:43:30.332Z,111.23
2018-12-20T19:45:59.398Z,109.00
2018-12-20T19:48:28.477Z,139.83
2018-12-20T19:50:57.580Z,138.03
2018-12-20T19:53:26.648Z,102.10
2018-12-20T19:55:55.726Z,97.00
2018-12-20T19:58:24.825Z,94.27
2018-12-20T20:00:53.901Z,115.97
2018-12-20T20:03:22.979Z,99.03
2018-12-20T20:05:52.105Z,104.37
2018-12-20T20:08:21.189Z,107.13
2018-12-20T20:10:50.256Z,125.40
2018-12-20T20:13:19.632Z,111.33
2018-12-20T20:15:48.453Z,113.53
2018-12-20T20:18:17.518Z,109.27
2018-12-20T20:20:46.629Z,134.43
2018-12-20T20:23:15.694Z,128.27
2018-12-20T20:25:44.787Z,115.47
2018-12-20T20:28:13.906Z,131.33
2018-12-20T20:30:43.050Z,135.47
2018-12-20T20:33:12.145Z,106.47
2018-12-20T20:35:41.274Z,155.20
2018-12-20T20:38:10.357Z,197.03
2018-12-20T20:40:39.434Z,191.60
2018-12-20T20:43:08.549Z,135.43
2018-12-20T20:45:37.681Z,120.20
2018-12-20T20:48:06.783Z,111.07
2018-12-20T20:50:36.243Z,109.53
2018-12-20T20:53:05.320Z,93.47
2018-12-20T20:55:34.388Z,105.33
2018-12-20T20:58:03.496Z,106.17
2018-12-20T21:00:32.569Z,93.00
2018-12-20T21:03:01.638Z,87.67
2018-12-20T21:05:30.746Z,92.20
2018-12-20T21:07:59.834Z,85.07
2018-12-20T21:10:28.906Z,87.27
2018-12-20T21:12:58.105Z,87.73
2018-12-20T21:15:27.299Z,92.27
2018-12-20T21:17:56.363Z,103.70
2018-12-20T21:20:30.715Z,134.47
2018-12-20T21:22:54.562Z,137.47
2018-12-20T21:25:23.643Z,125.40
2018-12-20T21:27:52.741Z,116.27
2018-12-20T21:30:21.815Z,166.80
2018-12-20T21:32:50.898Z,136.63
2018-12-20T21:35:20.032Z,115.97
2018-12-20T21:37:49.100Z,136.73
2018-12-20T21:40:18.701Z,126.50
2018-12-20T21:42:47.280Z,119.30
2018-12-20T21:45:16.366Z,129.80
2018-12-20T21:47:45.444Z,138.80
2018-12-20T21:50:14.639Z,105.73
2018-12-20T21:52:43.780Z,89.00
2018-12-20T21:55:12.863Z,82.20
2018-12-20T21:57:42.051Z,88.00
2018-12-20T22:00:21.151Z,96.40
2018-12-20T22:02:52.769Z,95.00
2018-12-20T22:05:21.831Z,89.93
2018-12-20T22:07:50.904Z,91.43
2018-12-20T22:10:20.011Z,110.77
2018-12-20T22:12:49.086Z,128.63
2018-12-20T22:15:18.164Z,101.00
2018-12-20T22:17:47.647Z,93.00
2018-12-20T22:20:16.731Z,92.90
2018-12-20T22:22:45.796Z,89.00
2018-12-20T22:25:14.935Z,88.13
2018-12-20T22:27:44.010Z,87.10
2018-12-20T22:30:13.092Z,85.50
2018-12-20T22:32:42.182Z,88.90
2018-12-20T22:35:11.250Z,79.27
2018-12-20T22:37:40.320Z,77.67
2018-12-20T22:40:09.688Z,80.80
2018-12-20T22:42:38.761Z,110.97
2018-12-20T22:45:07.867Z,83.50
2018-12-20T22:47:37.053Z,108.67
2018-12-20T22:50:06.171Z,116.93
2018-12-20T22:52:35.243Z,104.30
2018-12-20T22:55:04.339Z,112.13
2018-12-20T22:57:33.410Z,101.80
2018-12-20T23:00:02.492Z,89.93
2018-12-20T23:02:31.602Z,100.07
2018-12-20T23:05:00.672Z,98.03
2018-12-20T23:07:29.744Z,117.70
2018-12-20T23:09:58.833Z,103.70
2018-12-20T23:12:27.928Z,101.63
2018-12-20T23:14:56.999Z,85.83
2018-12-20T23:20:21.114Z,103.10
2018-12-20T23:22:50.416Z,84.67
2018-12-20T23:25:19.492Z,107.40
2018-12-20T23:27:48.567Z,93.13
2018-12-20T23:30:17.663Z,97.20
2018-12-20T23:32:46.729Z,85.33
2018-12-20T23:35:15.795Z,96.33
2018-12-20T23:37:44.921Z,89.73
2018-12-20T23:40:14.013Z,88.80
2018-12-20T23:42:43.082Z,80.47
2018-12-20T23:45:12.173Z,77.80
2018-12-20T23:47:41.241Z,80.67
2018-12-20T23:50:10.319Z,84.67
2018-12-20T23:52:39.414Z,85.97
2018-12-20T23:55:08.478Z,83.37
2018-12-20T23:57:37.557Z,83.83
